sensor_id;sensor_type;location;lat;lon;timestamp;P1;durP1;ratioP1;P2;durP2;ratioP2
77948;SDS011;67146;51.236;-0.336;2023-06-22T00:01:47;11.23;;;4.23;;
77948;SDS011;67146;51.236;-0.336;2023-06-22T00:04:12;11.80;;;4.50;;
77948;SDS011;67146;51.236;-0.336;2023-06-22T00:06:38;15.97;;;4.10;;
77948;SDS011;67146;51.236;-0.336;2023-06-22T00:09:03;12.67;;;4.47;;
77948;SDS011;67146;51.236;-0.336;2023-06-22T00:11:28;12.27;;;4.53;;
77948;SDS011;67146;51.236;-0.336;2023-06-22T00:13:54;9.93;;;3.88;;
77948;SDS011;67146;51.236;-0.336;2023-06-22T00:16:19;16.43;;;5.13;;
77948;SDS011;67146;51.236;-0.336;2023-06-22T00:18:44;9.33;;;4.30;;
77948;SDS011;67146;51.236;-0.336;2023-06-22T00:21:12;9.60;;;3.83;;
77948;SDS011;67146;51.236;-0.336;2023-06-22T00:23:38;9.98;;;4.25;;
77948;SDS011;67146;51.236;-0.336;2023-06-22T00:26:03;10.27;;;4.17;;
77948;SDS011;67146;51.236;-0.336;2023-06-22T00:28:28;13.13;;;4.97;;
77948;SDS011;67146;51.236;-0.336;2023-06-22T00:30:54;12.57;;;4.63;;
77948;SDS011;67146;51.236;-0.336;2023-06-22T00:33:19;11.67;;;4.70;;
77948;SDS011;67146;51.236;-0.336;2023-06-22T00:35:44;9.10;;;4.63;;
77948;SDS011;67146;51.236;-0.336;2023-06-22T00:38:10;9.60;;;4.18;;
77948;SDS011;67146;51.236;-0.336;2023-06-22T00:40:36;10.20;;;4.28;;
77948;SDS011;67146;51.236;-0.336;2023-06-22T00:43:02;11.95;;;4.88;;
77948;SDS011;67146;51.236;-0.336;2023-06-22T00:45:27;12.55;;;4.80;;
77948;SDS011;67146;51.236;-0.336;2023-06-22T00:47:53;11.07;;;4.15;;
77948;SDS011;67146;51.236;-0.336;2023-06-22T00:50:22;11.18;;;4.07;;
77948;SDS011;67146;51.236;-0.336;2023-06-22T00:52:49;12.70;;;4.10;;
77948;SDS011;67146;51.236;-0.336;2023-06-22T00:55:16;9.32;;;4.28;;
77948;SDS011;67146;51.236;-0.336;2023-06-22T00:57:43;10.65;;;3.75;;
77948;SDS011;67146;51.236;-0.336;2023-06-22T01:00:11;10.50;;;4.45;;
77948;SDS011;67146;51.236;-0.336;2023-06-22T01:02:43;13.73;;;4.25;;
77948;SDS011;67146;51.236;-0.336;2023-06-22T01:05:11;12.90;;;4.63;;
77948;SDS011;67146;51.236;-0.336;2023-06-22T01:07:42;13.88;;;4.68;;
77948;SDS011;67146;51.236;-0.336;2023-06-22T01:10:27;11.00;;;4.20;;
77948;SDS011;67146;51.236;-0.336;2023-06-22T01:12:58;8.85;;;3.58;;
77948;SDS011;67146;51.236;-0.336;2023-06-22T01:15:37;9.70;;;4.05;;
77948;SDS011;67146;51.236;-0.336;2023-06-22T01:18:06;11.70;;;4.40;;
77948;SDS011;67146;51.236;-0.336;2023-06-22T01:20:34;10.55;;;4.55;;
77948;SDS011;67146;51.236;-0.336;2023-06-22T01:28:55;13.57;;;4.65;;
77948;SDS011;67146;51.236;-0.336;2023-06-22T01:31:18;8.60;;;3.53;;
77948;SDS011;67146;51.236;-0.336;2023-06-22T01:33:48;10.93;;;4.05;;
77948;SDS011;67146;51.236;-0.336;2023-06-22T01:36:15;10.82;;;4.03;;
77948;SDS011;67146;51.236;-0.336;2023-06-22T01:38:41;11.88;;;4.38;;
77948;SDS011;67146;51.236;-0.336;2023-06-22T01:41:07;12.05;;;4.40;;
77948;SDS011;67146;51.236;-0.336;2023-06-22T01:43:32;10.27;;;4.27;;
77948;SDS011;67146;51.236;-0.336;2023-06-22T01:45:59;11.80;;;5.18;;
77948;SDS011;67146;51.236;-0.336;2023-06-22T01:48:25;11.75;;;3.75;;
77948;SDS011;67146;51.236;-0.336;2023-06-22T01:53:21;10.63;;;4.88;;
77948;SDS011;67146;51.236;-0.336;2023-06-22T01:55:47;11.73;;;4.63;;
77948;SDS011;67146;51.236;-0.336;2023-06-22T01:58:12;9.85;;;4.28;;
77948;SDS011;67146;51.236;-0.336;2023-06-22T02:00:38;9.50;;;4.18;;
77948;SDS011;67146;51.236;-0.336;2023-06-22T02:03:08;13.20;;;4.47;;
77948;SDS011;67146;51.236;-0.336;2023-06-22T02:05:37;8.40;;;3.53;;
77948;SDS011;67146;51.236;-0.336;2023-06-22T02:08:08;9.63;;;3.50;;
77948;SDS011;67146;51.236;-0.336;2023-06-22T02:10:35;8.27;;;3.55;;
77948;SDS011;67146;51.236;-0.336;2023-06-22T02:13:02;10.25;;;3.95;;
77948;SDS011;67146;51.236;-0.336;2023-06-22T02:15:29;9.38;;;3.95;;
77948;SDS011;67146;51.236;-0.336;2023-06-22T02:17:54;11.57;;;4.00;;
77948;SDS011;67146;51.236;-0.336;2023-06-22T02:20:20;10.77;;;3.95;;
77948;SDS011;67146;51.236;-0.336;2023-06-22T02:22:45;11.70;;;4.43;;
77948;SDS011;67146;51.236;-0.336;2023-06-22T02:25:11;12.47;;;5.07;;
77948;SDS011;67146;51.236;-0.336;2023-06-22T02:27:36;8.88;;;3.38;;
77948;SDS011;67146;51.236;-0.336;2023-06-22T02:30:05;9.27;;;3.85;;
77948;SDS011;67146;51.236;-0.336;2023-06-22T02:32:32;11.93;;;4.47;;
77948;SDS011;67146;51.236;-0.336;2023-06-22T02:34:59;10.95;;;3.92;;
77948;SDS011;67146;51.236;-0.336;2023-06-22T02:37:24;10.40;;;4.45;;
77948;SDS011;67146;51.236;-0.336;2023-06-22T02:39:50;9.68;;;3.85;;
77948;SDS011;67146;51.236;-0.336;2023-06-22T02:42:15;10.23;;;3.83;;
77948;SDS011;67146;51.236;-0.336;2023-06-22T02:44:45;11.80;;;3.78;;
77948;SDS011;67146;51.236;-0.336;2023-06-22T02:47:10;10.40;;;3.97;;
77948;SDS011;67146;51.236;-0.336;2023-06-22T02:49:36;10.33;;;3.40;;
77948;SDS011;67146;51.236;-0.336;2023-06-22T02:52:01;10.67;;;4.17;;
77948;SDS011;67146;51.236;-0.336;2023-06-22T02:54:26;10.45;;;4.28;;
77948;SDS011;67146;51.236;-0.336;2023-06-22T02:56:52;10.03;;;4.57;;
77948;SDS011;67146;51.236;-0.336;2023-06-22T02:59:17;10.48;;;4.63;;
77948;SDS011;67146;51.236;-0.336;2023-06-22T03:04:12;8.20;;;3.10;;
77948;SDS011;67146;51.236;-0.336;2023-06-22T03:06:38;11.30;;;4.70;;
77948;SDS011;67146;51.236;-0.336;2023-06-22T03:09:05;12.07;;;4.22;;
77948;SDS011;67146;51.236;-0.336;2023-06-22T03:11:31;11.40;;;3.92;;
77948;SDS011;67146;51.236;-0.336;2023-06-22T03:13:57;12.68;;;4.60;;
77948;SDS011;67146;51.236;-0.336;2023-06-22T03:16:23;10.43;;;4.15;;
77948;SDS011;67146;51.236;-0.336;2023-06-22T03:18:48;9.90;;;4.10;;
77948;SDS011;67146;51.236;-0.336;2023-06-22T03:21:14;10.13;;;3.87;;
77948;SDS011;67146;51.236;-0.336;2023-06-22T03:23:40;14.82;;;4.35;;
77948;SDS011;67146;51.236;-0.336;2023-06-22T03:26:06;10.38;;;4.15;;
77948;SDS011;67146;51.236;-0.336;2023-06-22T03:28:31;10.60;;;3.77;;
77948;SDS011;67146;51.236;-0.336;2023-06-22T03:30:59;11.33;;;4.47;;
77948;SDS011;67146;51.236;-0.336;2023-06-22T03:33:25;9.93;;;4.22;;
77948;SDS011;67146;51.236;-0.336;2023-06-22T03:35:50;10.13;;;4.10;;
77948;SDS011;67146;51.236;-0.336;2023-06-22T03:38:18;11.63;;;3.85;;
77948;SDS011;67146;51.236;-0.336;2023-06-22T03:40:44;9.38;;;3.90;;
77948;SDS011;67146;51.236;-0.336;2023-06-22T03:43:09;10.80;;;3.77;;
77948;SDS011;67146;51.236;-0.336;2023-06-22T03:45:34;11.18;;;3.95;;
77948;SDS011;67146;51.236;-0.336;2023-06-22T03:48:00;10.07;;;4.03;;
77948;SDS011;67146;51.236;-0.336;2023-06-22T03:50:25;12.82;;;4.55;;
77948;SDS011;67146;51.236;-0.336;2023-06-22T03:52:51;13.50;;;4.10;;
77948;SDS011;67146;51.236;-0.336;2023-06-22T03:55:17;12.13;;;5.20;;
77948;SDS011;67146;51.236;-0.336;2023-06-22T03:57:43;11.73;;;4.18;;
77948;SDS011;67146;51.236;-0.336;2023-06-22T04:00:08;10.20;;;4.30;;
77948;SDS011;67146;51.236;-0.336;2023-06-22T04:02:35;9.60;;;4.20;;
77948;SDS011;67146;51.236;-0.336;2023-06-22T04:05:00;13.73;;;4.78;;
77948;SDS011;67146;51.236;-0.336;2023-06-22T04:07:25;11.07;;;3.90;;
77948;SDS011;67146;51.236;-0.336;2023-06-22T04:09:51;14.50;;;4.73;;
77948;SDS011;67146;51.236;-0.336;2023-06-22T04:12:16;16.23;;;4.97;;
77948;SDS011;67146;51.236;-0.336;2023-06-22T04:14:41;15.40;;;5.03;;
77948;SDS011;67146;51.236;-0.336;2023-06-22T04:17:07;15.93;;;5.73;;
77948;SDS011;67146;51.236;-0.336;2023-06-22T04:19:32;14.80;;;5.43;;
77948;SDS011;67146;51.236;-0.336;2023-06-22T04:21:57;15.27;;;5.40;;
77948;SDS011;67146;51.236;-0.336;2023-06-22T04:24:23;16.33;;;4.88;;
77948;SDS011;67146;51.236;-0.336;2023-06-22T04:26:48;13.13;;;4.47;;
77948;SDS011;67146;51.236;-0.336;2023-06-22T04:29:13;15.00;;;5.65;;
77948;SDS011;67146;51.236;-0.336;2023-06-22T04:31:39;13.65;;;5.53;;
77948;SDS011;67146;51.236;-0.336;2023-06-22T04:34:05;14.33;;;4.10;;
77948;SDS011;67146;51.236;-0.336;2023-06-22T04:36:33;12.25;;;4.60;;
77948;SDS011;67146;51.236;-0.336;2023-06-22T04:39:02;12.77;;;5.80;;
77948;SDS011;67146;51.236;-0.336;2023-06-22T04:41:29;13.98;;;4.53;;
77948;SDS011;67146;51.236;-0.336;2023-06-22T04:43:54;11.53;;;4.63;;
77948;SDS011;67146;51.236;-0.336;2023-06-22T04:46:25;11.52;;;3.88;;
77948;SDS011;67146;51.236;-0.336;2023-06-22T04:48:50;11.60;;;4.63;;
77948;SDS011;67146;51.236;-0.336;2023-06-22T04:51:15;10.93;;;4.97;;
77948;SDS011;67146;51.236;-0.336;2023-06-22T04:53:41;9.85;;;3.55;;
77948;SDS011;67146;51.236;-0.336;2023-06-22T04:56:06;9.83;;;4.10;;
77948;SDS011;67146;51.236;-0.336;2023-06-22T04:58:31;8.70;;;3.33;;
77948;SDS011;67146;51.236;-0.336;2023-06-22T05:00:58;8.30;;;2.95;;
77948;SDS011;67146;51.236;-0.336;2023-06-22T05:03:26;10.37;;;3.53;;
77948;SDS011;67146;51.236;-0.336;2023-06-22T05:05:52;8.57;;;3.55;;
77948;SDS011;67146;51.236;-0.336;2023-06-22T05:08:18;11.10;;;3.72;;
77948;SDS011;67146;51.236;-0.336;2023-06-22T05:10:44;10.00;;;4.18;;
77948;SDS011;67146;51.236;-0.336;2023-06-22T05:13:11;7.60;;;3.47;;
77948;SDS011;67146;51.236;-0.336;2023-06-22T05:15:36;7.97;;;2.93;;
77948;SDS011;67146;51.236;-0.336;2023-06-22T05:18:04;7.88;;;3.03;;
77948;SDS011;67146;51.236;-0.336;2023-06-22T05:20:30;8.40;;;3.47;;
77948;SDS011;67146;51.236;-0.336;2023-06-22T05:22:56;9.18;;;3.67;;
77948;SDS011;67146;51.236;-0.336;2023-06-22T05:25:21;8.15;;;3.53;;
77948;SDS011;67146;51.236;-0.336;2023-06-22T05:27:46;6.87;;;2.67;;
77948;SDS011;67146;51.236;-0.336;2023-06-22T05:30:12;7.65;;;3.13;;
77948;SDS011;67146;51.236;-0.336;2023-06-22T05:32:37;7.47;;;3.17;;
77948;SDS011;67146;51.236;-0.336;2023-06-22T05:35:03;6.63;;;2.67;;
77948;SDS011;67146;51.236;-0.336;2023-06-22T05:37:29;8.43;;;2.75;;
77948;SDS011;67146;51.236;-0.336;2023-06-22T05:39:54;6.63;;;2.83;;
77948;SDS011;67146;51.236;-0.336;2023-06-22T05:42:21;6.30;;;2.88;;
77948;SDS011;67146;51.236;-0.336;2023-06-22T05:44:46;7.00;;;2.95;;
77948;SDS011;67146;51.236;-0.336;2023-06-22T05:47:12;6.72;;;2.55;;
77948;SDS011;67146;51.236;-0.336;2023-06-22T05:49:37;8.32;;;4.10;;
77948;SDS011;67146;51.236;-0.336;2023-06-22T05:52:03;7.37;;;3.37;;
77948;SDS011;67146;51.236;-0.336;2023-06-22T05:54:29;7.28;;;3.33;;
77948;SDS011;67146;51.236;-0.336;2023-06-22T05:56:55;6.30;;;2.95;;
77948;SDS011;67146;51.236;-0.336;2023-06-22T05:59:20;6.17;;;2.57;;
77948;SDS011;67146;51.236;-0.336;2023-06-22T06:01:45;6.43;;;2.47;;
77948;SDS011;67146;51.236;-0.336;2023-06-22T06:04:14;6.00;;;2.33;;
77948;SDS011;67146;51.236;-0.336;2023-06-22T06:06:41;7.63;;;2.92;;
77948;SDS011;67146;51.236;-0.336;2023-06-22T06:09:06;6.90;;;2.60;;
77948;SDS011;67146;51.236;-0.336;2023-06-22T06:11:32;6.63;;;3.45;;
77948;SDS011;67146;51.236;-0.336;2023-06-22T06:13:58;7.00;;;3.38;;
77948;SDS011;67146;51.236;-0.336;2023-06-22T06:16:23;7.47;;;4.53;;
77948;SDS011;67146;51.236;-0.336;2023-06-22T06:18:48;7.47;;;3.63;;
77948;SDS011;67146;51.236;-0.336;2023-06-22T06:21:15;7.50;;;4.35;;
77948;SDS011;67146;51.236;-0.336;2023-06-22T06:23:41;8.27;;;3.35;;
77948;SDS011;67146;51.236;-0.336;2023-06-22T06:26:07;7.03;;;3.35;;
77948;SDS011;67146;51.236;-0.336;2023-06-22T06:28:32;7.68;;;3.95;;
77948;SDS011;67146;51.236;-0.336;2023-06-22T06:30:58;8.63;;;4.20;;
77948;SDS011;67146;51.236;-0.336;2023-06-22T06:33:23;7.00;;;3.60;;
77948;SDS011;67146;51.236;-0.336;2023-06-22T06:35:49;7.82;;;4.18;;
77948;SDS011;67146;51.236;-0.336;2023-06-22T06:38:14;7.25;;;3.50;;
77948;SDS011;67146;51.236;-0.336;2023-06-22T06:40:40;8.03;;;3.67;;
77948;SDS011;67146;51.236;-0.336;2023-06-22T06:43:06;8.02;;;4.10;;
77948;SDS011;67146;51.236;-0.336;2023-06-22T06:45:31;9.03;;;4.00;;
77948;SDS011;67146;51.236;-0.336;2023-06-22T06:47:58;9.65;;;4.68;;
77948;SDS011;67146;51.236;-0.336;2023-06-22T06:50:23;8.53;;;4.10;;
77948;SDS011;67146;51.236;-0.336;2023-06-22T06:52:48;10.10;;;4.13;;
77948;SDS011;67146;51.236;-0.336;2023-06-22T06:57:42;8.85;;;4.25;;
77948;SDS011;67146;51.236;-0.336;2023-06-22T07:00:08;6.72;;;3.95;;
77948;SDS011;67146;51.236;-0.336;2023-06-22T07:02:37;8.00;;;4.18;;
77948;SDS011;67146;51.236;-0.336;2023-06-22T07:05:04;9.93;;;4.35;;
77948;SDS011;67146;51.236;-0.336;2023-06-22T07:07:31;7.95;;;4.40;;
77948;SDS011;67146;51.236;-0.336;2023-06-22T07:09:56;9.25;;;5.13;;
77948;SDS011;67146;51.236;-0.336;2023-06-22T07:12:22;10.88;;;5.43;;
77948;SDS011;67146;51.236;-0.336;2023-06-22T07:14:47;7.77;;;4.63;;
77948;SDS011;67146;51.236;-0.336;2023-06-22T07:17:13;10.30;;;4.50;;
77948;SDS011;67146;51.236;-0.336;2023-06-22T07:19:38;9.80;;;5.43;;
77948;SDS011;67146;51.236;-0.336;2023-06-22T07:22:04;9.32;;;5.20;;
77948;SDS011;67146;51.236;-0.336;2023-06-22T07:24:29;7.72;;;4.28;;
77948;SDS011;67146;51.236;-0.336;2023-06-22T07:26:55;8.63;;;4.80;;
77948;SDS011;67146;51.236;-0.336;2023-06-22T07:29:22;9.43;;;4.85;;
77948;SDS011;67146;51.236;-0.336;2023-06-22T07:31:48;7.33;;;4.77;;
77948;SDS011;67146;51.236;-0.336;2023-06-22T07:34:15;8.15;;;5.03;;
77948;SDS011;67146;51.236;-0.336;2023-06-22T07:36:40;7.95;;;4.55;;
77948;SDS011;67146;51.236;-0.336;2023-06-22T07:39:05;7.70;;;4.10;;
77948;SDS011;67146;51.236;-0.336;2023-06-22T07:41:31;7.68;;;3.95;;
77948;SDS011;67146;51.236;-0.336;2023-06-22T07:43:57;8.77;;;4.07;;
77948;SDS011;67146;51.236;-0.336;2023-06-22T07:46:22;8.73;;;4.13;;
77948;SDS011;67146;51.236;-0.336;2023-06-22T07:48:48;8.02;;;3.85;;
77948;SDS011;67146;51.236;-0.336;2023-06-22T07:51:13;9.03;;;3.83;;
77948;SDS011;67146;51.236;-0.336;2023-06-22T07:53:40;9.38;;;4.82;;
77948;SDS011;67146;51.236;-0.336;2023-06-22T07:56:06;6.50;;;3.47;;
77948;SDS011;67146;51.236;-0.336;2023-06-22T07:58:32;7.30;;;3.55;;
77948;SDS011;67146;51.236;-0.336;2023-06-22T08:00:58;8.10;;;3.67;;
77948;SDS011;67146;51.236;-0.336;2023-06-22T08:03:23;6.53;;;4.10;;
77948;SDS011;67146;51.236;-0.336;2023-06-22T08:05:49;6.73;;;3.83;;
77948;SDS011;67146;51.236;-0.336;2023-06-22T08:08:14;6.47;;;3.42;;
77948;SDS011;67146;51.236;-0.336;2023-06-22T08:10:40;6.38;;;3.53;;
77948;SDS011;67146;51.236;-0.336;2023-06-22T08:13:06;8.23;;;3.72;;
77948;SDS011;67146;51.236;-0.336;2023-06-22T08:15:31;8.07;;;3.83;;
77948;SDS011;67146;51.236;-0.336;2023-06-22T08:17:57;6.93;;;3.30;;
77948;SDS011;67146;51.236;-0.336;2023-06-22T08:20:23;6.15;;;2.83;;
77948;SDS011;67146;51.236;-0.336;2023-06-22T08:22:48;7.65;;;3.60;;
77948;SDS011;67146;51.236;-0.336;2023-06-22T08:25:14;5.78;;;3.13;;
77948;SDS011;67146;51.236;-0.336;2023-06-22T08:27:39;5.38;;;3.33;;
77948;SDS011;67146;51.236;-0.336;2023-06-22T08:30:05;7.30;;;3.58;;
77948;SDS011;67146;51.236;-0.336;2023-06-22T08:32:31;6.63;;;2.70;;
77948;SDS011;67146;51.236;-0.336;2023-06-22T08:35:00;5.90;;;2.42;;
77948;SDS011;67146;51.236;-0.336;2023-06-22T08:37:25;6.60;;;2.88;;
77948;SDS011;67146;51.236;-0.336;2023-06-22T08:40:05;6.63;;;2.80;;
77948;SDS011;67146;51.236;-0.336;2023-06-22T08:42:39;5.35;;;2.50;;
77948;SDS011;67146;51.236;-0.336;2023-06-22T08:45:05;5.85;;;2.42;;
77948;SDS011;67146;51.236;-0.336;2023-06-22T08:47:31;7.55;;;2.97;;
77948;SDS011;67146;51.236;-0.336;2023-06-22T08:49:56;6.17;;;3.07;;
77948;SDS011;67146;51.236;-0.336;2023-06-22T08:52:22;7.03;;;2.40;;
77948;SDS011;67146;51.236;-0.336;2023-06-22T08:54:48;7.45;;;2.88;;
77948;SDS011;67146;51.236;-0.336;2023-06-22T08:57:13;5.28;;;2.05;;
77948;SDS011;67146;51.236;-0.336;2023-06-22T08:59:39;5.90;;;2.13;;
77948;SDS011;67146;51.236;-0.336;2023-06-22T09:02:05;6.07;;;2.55;;
77948;SDS011;67146;51.236;-0.336;2023-06-22T09:04:30;5.78;;;2.15;;
77948;SDS011;67146;51.236;-0.336;2023-06-22T09:06:59;7.80;;;2.20;;
77948;SDS011;67146;51.236;-0.336;2023-06-22T09:09:25;4.75;;;2.40;;
77948;SDS011;67146;51.236;-0.336;2023-06-22T09:11:50;5.47;;;2.43;;
77948;SDS011;67146;51.236;-0.336;2023-06-22T09:14:15;5.63;;;2.20;;
77948;SDS011;67146;51.236;-0.336;2023-06-22T09:16:41;5.22;;;2.28;;
77948;SDS011;67146;51.236;-0.336;2023-06-22T09:19:06;5.33;;;2.93;;
77948;SDS011;67146;51.236;-0.336;2023-06-22T09:21:32;6.77;;;2.70;;
77948;SDS011;67146;51.236;-0.336;2023-06-22T09:23:57;6.90;;;2.95;;
77948;SDS011;67146;51.236;-0.336;2023-06-22T09:26:22;6.88;;;3.38;;
77948;SDS011;67146;51.236;-0.336;2023-06-22T09:28:49;5.80;;;4.20;;
77948;SDS011;67146;51.236;-0.336;2023-06-22T09:31:14;5.32;;;2.40;;
77948;SDS011;67146;51.236;-0.336;2023-06-22T09:33:41;6.75;;;3.05;;
77948;SDS011;67146;51.236;-0.336;2023-06-22T09:36:07;6.00;;;2.60;;
77948;SDS011;67146;51.236;-0.336;2023-06-22T09:38:38;4.97;;;2.88;;
77948;SDS011;67146;51.236;-0.336;2023-06-22T09:41:04;6.32;;;2.47;;
77948;SDS011;67146;51.236;-0.336;2023-06-22T09:43:30;5.22;;;2.70;;
77948;SDS011;67146;51.236;-0.336;2023-06-22T09:45:56;5.05;;;2.45;;
77948;SDS011;67146;51.236;-0.336;2023-06-22T09:48:22;5.40;;;2.50;;
77948;SDS011;67146;51.236;-0.336;2023-06-22T09:50:47;5.43;;;3.50;;
77948;SDS011;67146;51.236;-0.336;2023-06-22T09:53:12;6.07;;;2.33;;
77948;SDS011;67146;51.236;-0.336;2023-06-22T09:55:38;8.73;;;3.40;;
77948;SDS011;67146;51.236;-0.336;2023-06-22T09:58:03;5.10;;;2.03;;
77948;SDS011;67146;51.236;-0.336;2023-06-22T10:00:28;5.80;;;2.17;;
77948;SDS011;67146;51.236;-0.336;2023-06-22T10:02:54;6.87;;;2.93;;
77948;SDS011;67146;51.236;-0.336;2023-06-22T10:05:20;4.68;;;2.63;;
77948;SDS011;67146;51.236;-0.336;2023-06-22T10:07:46;5.85;;;2.75;;
77948;SDS011;67146;51.236;-0.336;2023-06-22T10:10:12;6.73;;;2.83;;
77948;SDS011;67146;51.236;-0.336;2023-06-22T10:12:40;5.20;;;4.00;;
77948;SDS011;67146;51.236;-0.336;2023-06-22T10:15:07;8.30;;;2.83;;
77948;SDS011;67146;51.236;-0.336;2023-06-22T10:17:32;6.38;;;2.58;;
77948;SDS011;67146;51.236;-0.336;2023-06-22T10:19:58;7.13;;;2.60;;
77948;SDS011;67146;51.236;-0.336;2023-06-22T10:22:23;5.03;;;2.47;;
77948;SDS011;67146;51.236;-0.336;2023-06-22T10:24:48;5.60;;;2.50;;
77948;SDS011;67146;51.236;-0.336;2023-06-22T10:27:14;6.63;;;2.67;;
77948;SDS011;67146;51.236;-0.336;2023-06-22T10:29:39;6.07;;;4.00;;
77948;SDS011;67146;51.236;-0.336;2023-06-22T10:32:06;6.35;;;3.28;;
77948;SDS011;67146;51.236;-0.336;2023-06-22T10:34:32;6.68;;;2.65;;
77948;SDS011;67146;51.236;-0.336;2023-06-22T10:36:57;5.85;;;2.63;;
77948;SDS011;67146;51.236;-0.336;2023-06-22T10:39:22;5.00;;;2.20;;
77948;SDS011;67146;51.236;-0.336;2023-06-22T10:41:48;5.13;;;2.17;;
77948;SDS011;67146;51.236;-0.336;2023-06-22T10:44:13;6.07;;;2.33;;
77948;SDS011;67146;51.236;-0.336;2023-06-22T10:46:38;5.85;;;2.35;;
77948;SDS011;67146;51.236;-0.336;2023-06-22T10:49:04;5.43;;;2.10;;
77948;SDS011;67146;51.236;-0.336;2023-06-22T10:51:29;5.18;;;3.38;;
77948;SDS011;67146;51.236;-0.336;2023-06-22T10:53:56;4.93;;;2.40;;
77948;SDS011;67146;51.236;-0.336;2023-06-22T10:56:21;5.40;;;2.07;;
77948;SDS011;67146;51.236;-0.336;2023-06-22T10:58:47;5.60;;;2.90;;
77948;SDS011;67146;51.236;-0.336;2023-06-22T11:01:12;4.80;;;2.63;;
77948;SDS011;67146;51.236;-0.336;2023-06-22T11:03:38;5.10;;;2.50;;
77948;SDS011;67146;51.236;-0.336;2023-06-22T11:06:03;5.37;;;2.70;;
77948;SDS011;67146;51.236;-0.336;2023-06-22T11:08:28;5.80;;;2.43;;
77948;SDS011;67146;51.236;-0.336;2023-06-22T11:10:54;5.82;;;2.42;;
77948;SDS011;67146;51.236;-0.336;2023-06-22T11:13:19;6.10;;;2.90;;
77948;SDS011;67146;51.236;-0.336;2023-06-22T11:15:44;6.13;;;2.40;;
77948;SDS011;67146;51.236;-0.336;2023-06-22T11:18:10;7.03;;;2.33;;
77948;SDS011;67146;51.236;-0.336;2023-06-22T11:20:35;6.05;;;2.25;;
77948;SDS011;67146;51.236;-0.336;2023-06-22T11:23:04;7.32;;;3.38;;
77948;SDS011;67146;51.236;-0.336;2023-06-22T11:25:32;6.95;;;2.47;;
77948;SDS011;67146;51.236;-0.336;2023-06-22T11:28:00;5.55;;;2.50;;
77948;SDS011;67146;51.236;-0.336;2023-06-22T11:30:27;5.72;;;2.15;;
77948;SDS011;67146;51.236;-0.336;2023-06-22T11:32:52;6.38;;;2.42;;
77948;SDS011;67146;51.236;-0.336;2023-06-22T11:35:17;5.50;;;2.63;;
77948;SDS011;67146;51.236;-0.336;2023-06-22T11:37:43;5.60;;;2.13;;
77948;SDS011;67146;51.236;-0.336;2023-06-22T11:40:08;7.10;;;2.33;;
77948;SDS011;67146;51.236;-0.336;2023-06-22T11:42:34;6.45;;;2.35;;
77948;SDS011;67146;51.236;-0.336;2023-06-22T11:45:00;6.40;;;2.67;;
77948;SDS011;67146;51.236;-0.336;2023-06-22T11:47:25;8.13;;;2.58;;
77948;SDS011;67146;51.236;-0.336;2023-06-22T11:49:50;6.33;;;2.00;;
77948;SDS011;67146;51.236;-0.336;2023-06-22T11:52:16;5.07;;;2.30;;
77948;SDS011;67146;51.236;-0.336;2023-06-22T11:54:42;5.25;;;2.20;;
77948;SDS011;67146;51.236;-0.336;2023-06-22T11:57:08;6.20;;;2.40;;
77948;SDS011;67146;51.236;-0.336;2023-06-22T11:59:33;7.28;;;2.72;;
77948;SDS011;67146;51.236;-0.336;2023-06-22T12:01:59;6.53;;;2.63;;
77948;SDS011;67146;51.236;-0.336;2023-06-22T12:04:24;5.90;;;2.42;;
77948;SDS011;67146;51.236;-0.336;2023-06-22T12:06:49;6.95;;;2.38;;
77948;SDS011;67146;51.236;-0.336;2023-06-22T12:09:15;5.35;;;2.10;;
77948;SDS011;67146;51.236;-0.336;2023-06-22T12:11:40;6.53;;;2.60;;
77948;SDS011;67146;51.236;-0.336;2023-06-22T12:14:06;7.40;;;2.50;;
77948;SDS011;67146;51.236;-0.336;2023-06-22T12:16:31;6.33;;;2.40;;
77948;SDS011;67146;51.236;-0.336;2023-06-22T12:18:56;6.10;;;2.83;;
77948;SDS011;67146;51.236;-0.336;2023-06-22T12:21:22;6.33;;;2.20;;
77948;SDS011;67146;51.236;-0.336;2023-06-22T12:23:47;5.72;;;2.22;;
77948;SDS011;67146;51.236;-0.336;2023-06-22T12:26:13;6.82;;;2.63;;
77948;SDS011;67146;51.236;-0.336;2023-06-22T12:28:38;6.35;;;2.40;;
77948;SDS011;67146;51.236;-0.336;2023-06-22T12:31:03;8.07;;;3.10;;
77948;SDS011;67146;51.236;-0.336;2023-06-22T12:33:29;5.60;;;2.20;;
77948;SDS011;67146;51.236;-0.336;2023-06-22T12:35:55;6.50;;;2.80;;
77948;SDS011;67146;51.236;-0.336;2023-06-22T12:38:20;5.72;;;2.33;;
77948;SDS011;67146;51.236;-0.336;2023-06-22T12:40:46;7.70;;;2.70;;
77948;SDS011;67146;51.236;-0.336;2023-06-22T12:43:12;7.82;;;2.47;;
77948;SDS011;67146;51.236;-0.336;2023-06-22T12:45:37;8.13;;;3.07;;
77948;SDS011;67146;51.236;-0.336;2023-06-22T12:48:02;6.28;;;3.55;;
77948;SDS011;67146;51.236;-0.336;2023-06-22T12:50:28;5.82;;;2.28;;
77948;SDS011;67146;51.236;-0.336;2023-06-22T12:52:53;7.87;;;3.33;;
77948;SDS011;67146;51.236;-0.336;2023-06-22T12:55:19;9.07;;;2.47;;
77948;SDS011;67146;51.236;-0.336;2023-06-22T12:57:44;5.15;;;2.10;;
77948;SDS011;67146;51.236;-0.336;2023-06-22T13:00:09;7.03;;;2.67;;
77948;SDS011;67146;51.236;-0.336;2023-06-22T13:02:36;9.20;;;2.80;;
77948;SDS011;67146;51.236;-0.336;2023-06-22T13:05:02;6.55;;;2.65;;
77948;SDS011;67146;51.236;-0.336;2023-06-22T13:07:27;5.47;;;2.65;;
77948;SDS011;67146;51.236;-0.336;2023-06-22T13:09:53;6.68;;;2.88;;
77948;SDS011;67146;51.236;-0.336;2023-06-22T13:12:19;7.68;;;2.75;;
77948;SDS011;67146;51.236;-0.336;2023-06-22T13:14:47;6.47;;;2.78;;
77948;SDS011;67146;51.236;-0.336;2023-06-22T13:17:13;5.95;;;3.67;;
77948;SDS011;67146;51.236;-0.336;2023-06-22T13:19:39;6.55;;;2.97;;
77948;SDS011;67146;51.236;-0.336;2023-06-22T13:22:04;7.70;;;2.60;;
77948;SDS011;67146;51.236;-0.336;2023-06-22T13:24:30;10.90;;;2.58;;
77948;SDS011;67146;51.236;-0.336;2023-06-22T13:26:55;6.53;;;3.03;;
77948;SDS011;67146;51.236;-0.336;2023-06-22T13:29:21;7.00;;;4.73;;
77948;SDS011;67146;51.236;-0.336;2023-06-22T13:31:46;6.77;;;2.63;;
77948;SDS011;67146;51.236;-0.336;2023-06-22T13:34:11;7.77;;;2.43;;
77948;SDS011;67146;51.236;-0.336;2023-06-22T13:36:37;7.28;;;2.88;;
77948;SDS011;67146;51.236;-0.336;2023-06-22T13:39:02;9.00;;;2.80;;
77948;SDS011;67146;51.236;-0.336;2023-06-22T13:41:28;7.20;;;2.85;;
77948;SDS011;67146;51.236;-0.336;2023-06-22T13:43:54;6.80;;;2.58;;
77948;SDS011;67146;51.236;-0.336;2023-06-22T13:46:20;7.70;;;2.93;;
77948;SDS011;67146;51.236;-0.336;2023-06-22T13:48:45;6.78;;;2.42;;
77948;SDS011;67146;51.236;-0.336;2023-06-22T13:51:11;6.13;;;2.63;;
77948;SDS011;67146;51.236;-0.336;2023-06-22T13:53:36;5.97;;;2.57;;
77948;SDS011;67146;51.236;-0.336;2023-06-22T13:56:01;6.43;;;2.93;;
77948;SDS011;67146;51.236;-0.336;2023-06-22T13:58:27;6.95;;;3.35;;
77948;SDS011;67146;51.236;-0.336;2023-06-22T14:00:52;6.97;;;2.83;;
77948;SDS011;67146;51.236;-0.336;2023-06-22T14:03:17;6.63;;;2.30;;
77948;SDS011;67146;51.236;-0.336;2023-06-22T14:05:43;6.23;;;2.53;;
77948;SDS011;67146;51.236;-0.336;2023-06-22T14:08:08;5.87;;;2.13;;
77948;SDS011;67146;51.236;-0.336;2023-06-22T14:10:34;6.35;;;2.47;;
77948;SDS011;67146;51.236;-0.336;2023-06-22T14:12:59;7.28;;;2.35;;
77948;SDS011;67146;51.236;-0.336;2023-06-22T14:15:25;6.18;;;1.95;;
77948;SDS011;67146;51.236;-0.336;2023-06-22T14:17:51;6.68;;;2.70;;
77948;SDS011;67146;51.236;-0.336;2023-06-22T14:20:17;5.80;;;2.38;;
77948;SDS011;67146;51.236;-0.336;2023-06-22T14:22:43;6.68;;;2.47;;
77948;SDS011;67146;51.236;-0.336;2023-06-22T14:25:08;6.07;;;2.33;;
77948;SDS011;67146;51.236;-0.336;2023-06-22T14:27:34;7.60;;;2.80;;
77948;SDS011;67146;51.236;-0.336;2023-06-22T14:29:59;6.07;;;2.15;;
77948;SDS011;67146;51.236;-0.336;2023-06-22T14:32:25;6.82;;;3.40;;
77948;SDS011;67146;51.236;-0.336;2023-06-22T14:34:50;5.65;;;2.33;;
77948;SDS011;67146;51.236;-0.336;2023-06-22T14:37:15;6.57;;;2.60;;